Time;durP1;ratioP1;P1;durP2;ratioP2;P2;SDS_P1;SDS_P2;PMS_P1;PMS_P2;Temp;Humidity;BMP_temperature;BMP_pressure;BME280_temperature;BME280_humidity;BME280_pressure;Samples;Min_cycle;Max_cycle;Signal;HPM_P1;HPM_P2
2021/05/10 00:00:57;;;;;;;2.07;1.77;;;18.50;95.20;;;;;;5079420;28;20295;-75
2021/05/10 00:03:23;;;;;;;2.10;1.90;;;18.40;95.20;;;;;;5079904;28;20749;-75
2021/05/10 00:05:50;;;;;;;2.83;1.53;;;18.40;95.10;;;;;;5099329;28;20202;-74
2021/05/10 00:08:16;;;;;;;2.50;2.03;;;18.40;95.00;;;;;;5098305;28;20439;-75
2021/05/10 00:10:42;;;;;;;2.90;2.20;;;18.30;95.20;;;;;;5096888;28;20461;-75
2021/05/10 00:13:08;;;;;;;4.43;2.50;;;18.30;95.40;;;;;;5096806;28;20170;-75
2021/05/10 00:15:35;;;;;;;1.87;1.77;;;18.30;95.40;;;;;;5098484;28;20489;-74
2021/05/10 00:18:04;;;;;;;2.50;2.30;;;18.20;95.30;;;;;;5083859;28;20794;-74
2021/05/10 00:20:35;;;;;;;2.93;2.00;;;18.20;95.40;;;;;;5097960;28;20422;-75
2021/05/10 00:23:01;;;;;;;2.50;1.90;;;18.10;95.50;;;;;;5098531;28;20415;-74
2021/05/10 00:25:27;;;;;;;2.73;2.20;;;18.10;95.70;;;;;;5097340;28;20417;-74
2021/05/10 00:27:53;;;;;;;2.17;1.97;;;18.00;95.70;;;;;;5078838;28;20449;-75
2021/05/10 00:30:20;;;;;;;2.80;2.60;;;18.00;95.70;;;;;;5097642;28;20450;-75
2021/05/10 00:32:46;;;;;;;3.17;2.30;;;18.00;96.10;;;;;;5096585;28;20164;-75
2021/05/10 00:35:13;;;;;;;2.10;1.90;;;17.90;96.10;;;;;;5096264;28;20438;-75
2021/05/10 00:37:39;;;;;;;2.50;2.30;;;17.80;96.40;;;;;;5095330;28;20196;-74
2021/05/10 00:40:06;;;;;;;2.30;2.10;;;17.80;96.50;;;;;;5095973;28;20492;-74
2021/05/10 00:42:32;;;;;;;3.10;2.30;;;17.80;96.60;;;;;;5096085;28;20173;-74
2021/05/10 00:44:57;;;;;;;2.83;2.00;;;17.80;96.80;;;;;;5078017;28;20795;-74
2021/05/10 00:47:23;;;;;;;2.20;1.77;;;17.70;96.90;;;;;;5077501;28;20195;-74
2021/05/10 00:49:48;;;;;;;2.50;2.30;;;17.70;97.00;;;;;;5096027;28;20233;-74
2021/05/10 00:52:14;;;;;;;2.13;1.97;;;17.60;97.00;;;;;;5096515;28;20242;-74
2021/05/10 00:54:39;;;;;;;2.60;2.40;;;17.60;97.20;;;;;;5095875;28;20178;-74
2021/05/10 00:57:06;;;;;;;2.33;2.07;;;17.60;97.30;;;;;;5095853;28;20192;-74
2021/05/10 00:59:31;;;;;;;3.13;2.10;;;17.50;97.30;;;;;;5096355;28;20162;-75
2021/05/10 01:01:57;;;;;;;2.90;2.70;;;17.50;97.50;;;;;;5095676;28;20889;-75
2021/05/10 01:04:22;;;;;;;2.30;2.10;;;17.50;97.50;;;;;;5095827;28;20664;-74
2021/05/10 01:06:48;;;;;;;1.80;1.67;;;17.40;97.50;;;;;;5077291;28;20390;-74
2021/05/10 01:09:13;;;;;;;3.33;2.13;;;17.40;97.50;;;;;;5095729;28;20559;-74
2021/05/10 01:11:39;;;;;;;4.03;2.20;;;17.40;98.00;;;;;;5095766;28;20198;-74
2021/05/10 01:14:04;;;;;;;9.20;2.50;;;17.30;97.60;;;;;;5096038;28;20193;-74
2021/05/10 01:16:30;;;;;;;3.20;2.00;;;17.40;97.70;;;;;;5095074;28;20253;-74
2021/05/10 01:18:56;;;;;;;1.77;1.67;;;17.30;97.70;;;;;;5095171;28;20208;-74
2021/05/10 01:21:23;;;;;;;2.90;2.13;;;17.30;97.90;;;;;;5095748;28;20181;-74
2021/05/10 01:23:48;;;;;;;2.57;2.37;;;17.20;97.90;;;;;;5077897;28;20922;-74
2021/05/10 01:26:14;;;;;;;2.70;1.80;;;17.20;97.90;;;;;;5096378;28;20405;-75
2021/05/10 01:28:41;;;;;;;2.03;1.90;;;17.20;97.90;;;;;;5096040;28;20227;-75
2021/05/10 01:31:06;;;;;;;2.10;1.70;;;17.20;98.00;;;;;;5077700;28;20522;-75
2021/05/10 01:33:32;;;;;;;1.90;1.70;;;17.10;98.00;;;;;;5095505;28;20405;-74
2021/05/10 01:35:58;;;;;;;4.13;2.10;;;17.10;98.00;;;;;;5095726;28;20190;-75
2021/05/10 01:38:23;;;;;;;3.20;1.70;;;17.10;98.10;;;;;;5095533;28;20254;-74
2021/05/10 01:40:49;;;;;;;2.67;2.13;;;17.00;98.20;;;;;;5095937;28;20170;-74
2021/05/10 01:43:16;;;;;;;3.53;2.03;;;17.10;98.00;;;;;;5097231;28;20621;-75
2021/05/10 01:45:42;;;;;;;4.03;1.83;;;17.00;98.10;;;;;;5097889;28;20418;-75
2021/05/10 01:48:10;;;;;;;2.30;2.10;;;17.00;98.10;;;;;;5099128;28;20452;-75
2021/05/10 01:50:38;;;;;;;2.17;1.97;;;16.90;98.30;;;;;;5101520;28;20458;-75
2021/05/10 01:53:07;;;;;;;5.57;2.40;;;16.90;98.20;;;;;;5101513;28;20400;-75
2021/05/10 01:55:34;;;;;;;2.00;1.80;;;16.90;98.40;;;;;;5081075;28;20416;-75
2021/05/10 01:58:01;;;;;;;4.37;1.93;;;16.90;98.40;;;;;;5101824;28;20492;-75
2021/05/10 02:00:32;;;;;;;3.10;1.80;;;16.80;98.30;;;;;;5112385;28;20443;-74
2021/05/10 02:03:12;;;;;;;2.37;1.77;;;16.70;98.40;;;;;;5105393;28;20411;-75
2021/05/10 02:05:38;;;;;;;3.10;2.00;;;16.70;98.50;;;;;;5108251;28;20407;-75
2021/05/10 02:08:06;;;;;;;2.40;1.90;;;16.70;98.70;;;;;;5111519;28;20453;-76
2021/05/10 02:10:33;;;;;;;4.67;2.10;;;16.70;98.70;;;;;;5111844;28;20204;-75
2021/05/10 02:13:01;;;;;;;2.17;1.77;;;16.70;98.50;;;;;;5114065;28;20729;-75
2021/05/10 02:15:31;;;;;;;3.40;2.03;;;16.60;98.50;;;;;;5114101;28;20418;-75
2021/05/10 02:17:58;;;;;;;2.80;1.70;;;16.60;98.60;;;;;;5113849;28;20431;-74
2021/05/10 02:20:25;;;;;;;1.80;1.70;;;16.50;98.70;;;;;;5114138;28;20414;-75
2021/05/10 02:22:59;;;;;;;4.03;2.30;;;16.50;98.60;;;;;;5113696;28;20411;-75
2021/05/10 02:25:30;;;;;;;1.73;1.63;;;16.50;98.60;;;;;;5108670;28;20415;-74
2021/05/10 02:27:56;;;;;;;3.40;2.43;;;16.50;98.70;;;;;;5079839;28;20437;-75
2021/05/10 02:30:24;;;;;;;2.73;2.53;;;16.40;98.70;;;;;;5101037;28;20447;-75
2021/05/10 02:32:51;;;;;;;5.50;2.10;;;16.40;99.20;;;;;;5098878;28;20396;-75
2021/05/10 02:35:17;;;;;;;2.23;2.03;;;16.40;98.90;;;;;;5098328;28;20522;-75
2021/05/10 02:37:43;;;;;;;2.93;1.90;;;16.30;98.90;;;;;;5098623;28;20427;-75
2021/05/10 02:40:09;;;;;;;2.17;1.90;;;16.30;99.00;;;;;;5102409;28;20454;-75
2021/05/10 02:42:35;;;;;;;2.67;2.47;;;16.30;99.00;;;;;;5104625;28;20412;-75
2021/05/10 02:45:02;;;;;;;2.37;2.13;;;16.20;99.00;;;;;;5099332;28;20411;-75
2021/05/10 02:47:27;;;;;;;2.53;2.20;;;16.20;99.10;;;;;;5097329;28;20185;-76
2021/05/10 02:49:56;;;;;;;2.27;2.07;;;16.20;99.10;;;;;;5097726;28;20465;-75
2021/05/10 02:52:22;;;;;;;7.40;2.30;;;16.20;99.20;;;;;;5079907;28;20657;-75
2021/05/10 02:54:47;;;;;;;3.47;2.07;;;16.20;99.10;;;;;;5097859;28;20408;-75
2021/05/10 02:57:13;;;;;;;2.80;2.17;;;16.10;99.20;;;;;;5098164;28;20209;-74
2021/05/10 02:59:38;;;;;;;2.47;1.70;;;16.10;99.40;;;;;;5086179;28;20192;-75
2021/05/10 03:02:04;;;;;;;2.90;1.57;;;16.00;99.40;;;;;;5107288;28;20195;-76
2021/05/10 03:04:30;;;;;;;1.73;1.63;;;16.00;99.70;;;;;;5098095;28;20170;-75
2021/05/10 03:06:55;;;;;;;3.77;2.20;;;16.00;99.30;;;;;;5079162;28;20432;-75
2021/05/10 03:09:21;;;;;;;2.30;1.90;;;16.00;99.50;;;;;;5097305;28;20216;-75
2021/05/10 03:11:47;;;;;;;2.90;1.90;;;16.00;99.40;;;;;;5097051;28;20199;-75
2021/05/10 03:14:12;;;;;;;4.33;2.17;;;15.90;99.50;;;;;;5097595;28;20632;-75
2021/05/10 03:16:38;;;;;;;3.10;2.03;;;15.90;99.70;;;;;;5078408;28;20181;-75
2021/05/10 03:19:09;;;;;;;2.70;1.90;;;15.90;99.70;;;;;;5078628;28;20194;-75
2021/05/10 03:21:38;;;;;;;2.80;2.40;;;15.80;99.80;;;;;;5079790;28;20769;-75
2021/05/10 03:24:07;;;;;;;4.43;2.00;;;15.80;99.90;;;;;;5097898;28;20933;-75
2021/05/10 03:26:34;;;;;;;2.50;1.83;;;15.80;99.80;;;;;;5097406;28;20419;-75
2021/05/10 03:29:00;;;;;;;1.50;1.33;;;15.80;99.80;;;;;;5095808;28;20514;-75
2021/05/10 03:31:26;;;;;;;5.80;1.93;;;15.80;99.80;;;;;;5078582;28;20455;-75
2021/05/10 03:33:52;;;;;;;2.80;1.90;;;15.80;99.60;;;;;;5096870;28;20822;-75
2021/05/10 03:36:17;;;;;;;4.13;2.30;;;15.70;99.70;;;;;;5096897;28;20166;-75
2021/05/10 03:38:43;;;;;;;2.77;2.03;;;15.70;99.60;;;;;;5096721;28;20190;-75
2021/05/10 03:41:09;;;;;;;2.20;1.90;;;15.70;99.50;;;;;;5096785;28;20192;-74
2021/05/10 03:43:34;;;;;;;2.70;2.10;;;15.70;99.60;;;;;;5096662;28;20229;-75
2021/05/10 03:46:00;;;;;;;3.73;1.90;;;15.70;99.40;;;;;;5078131;28;20590;-75
2021/05/10 03:48:25;;;;;;;3.80;1.50;;;15.80;99.20;;;;;;5096220;28;20193;-75
2021/05/10 03:50:51;;;;;;;2.70;2.20;;;15.70;99.30;;;;;;5096545;28;20201;-76
2021/05/10 03:53:16;;;;;;;1.70;1.60;;;15.80;99.30;;;;;;5096428;28;20170;-76
2021/05/10 03:55:42;;;;;;;2.47;1.67;;;15.80;99.20;;;;;;5097031;28;20629;-76
2021/05/10 03:58:07;;;;;;;2.50;2.27;;;15.70;99.10;;;;;;5078147;28;20196;-76
2021/05/10 04:00:33;;;;;;;2.57;1.77;;;15.70;99.10;;;;;;5096634;28;20456;-76
2021/05/10 04:03:00;;;;;;;2.60;1.87;;;15.70;99.10;;;;;;5078071;28;20178;-76
2021/05/10 04:08:05;;;;;;;3.47;2.10;;;15.70;99.00;;;;;;5095971;28;20474;-73
2021/05/10 04:13:36;;;;;;;4.93;2.27;;;15.70;98.90;;;;;;5052067;28;20403;-74
2021/05/10 04:16:05;;;;;;;4.37;1.57;;;15.80;98.80;;;;;;5096551;28;20475;-75
2021/05/10 04:18:32;;;;;;;4.67;2.10;;;15.80;98.90;;;;;;5096541;28;20930;-76
2021/05/10 04:20:57;;;;;;;2.03;1.83;;;15.80;98.70;;;;;;5096457;28;20408;-76
2021/05/10 04:23:24;;;;;;;1.80;1.70;;;15.80;98.60;;;;;;5096449;28;20890;-75
2021/05/10 04:25:51;;;;;;;3.43;1.77;;;15.80;98.60;;;;;;5098674;28;20165;-74
2021/05/10 04:28:17;;;;;;;3.40;2.00;;;15.80;98.70;;;;;;5086315;28;20423;-75
2021/05/10 04:30:44;;;;;;;3.90;1.97;;;15.90;98.70;;;;;;5111143;28;20444;-75
2021/05/10 04:33:10;;;;;;;3.30;1.70;;;15.90;98.50;;;;;;5113210;28;20400;-75
2021/05/10 04:35:36;;;;;;;1.90;1.70;;;16.00;98.50;;;;;;5094447;28;20940;-75
2021/05/10 04:38:08;;;;;;;3.50;2.30;;;15.90;98.50;;;;;;5109716;28;20194;-75
2021/05/10 04:40:33;;;;;;;2.60;1.90;;;16.00;98.60;;;;;;5095811;28;20454;-75
2021/05/10 04:42:59;;;;;;;2.00;1.77;;;16.00;98.60;;;;;;5097229;28;20411;-75
2021/05/10 04:45:24;;;;;;;2.33;2.13;;;16.10;98.00;;;;;;5077615;28;20178;-75
2021/05/10 04:47:50;;;;;;;2.07;1.40;;;16.10;98.20;;;;;;5095449;28;20197;-75
2021/05/10 04:50:16;;;;;;;3.50;1.80;;;16.20;98.00;;;;;;5095044;28;20691;-75
2021/05/10 04:52:42;;;;;;;2.37;1.90;;;16.30;98.00;;;;;;5095713;28;20169;-74
2021/05/10 04:55:09;;;;;;;2.80;1.57;;;16.20;97.80;;;;;;5098336;28;20400;-75
2021/05/10 04:57:35;;;;;;;2.13;1.70;;;16.30;97.80;;;;;;5094516;28;20484;-74
2021/05/10 05:00:00;;;;;;;2.00;1.80;;;16.50;97.50;;;;;;5095865;28;20771;-74
2021/05/10 05:02:26;;;;;;;2.90;2.03;;;16.60;97.30;;;;;;5095312;28;20947;-75
2021/05/10 05:04:52;;;;;;;1.80;1.70;;;16.80;97.00;;;;;;5099601;28;20182;-74
2021/05/10 05:07:17;;;;;;;3.77;2.30;;;17.00;96.80;;;;;;5078790;28;20523;-74
2021/05/10 05:09:43;;;;;;;2.73;2.37;;;17.50;96.10;;;;;;5076680;28;20215;-74
2021/05/10 05:12:09;;;;;;;4.10;2.00;;;18.30;94.90;;;;;;5095853;28;20173;-74
2021/05/10 05:14:34;;;;;;;10.50;2.03;;;18.70;94.60;;;;;;5095647;28;20171;-74
2021/05/10 05:17:00;;;;;;;1.97;1.70;;;18.90;93.50;;;;;;5094867;28;20171;-75
2021/05/10 05:19:25;;;;;;;1.70;1.60;;;19.60;92.90;;;;;;5095485;28;20272;-74
2021/05/10 05:21:51;;;;;;;2.40;1.70;;;20.10;91.60;;;;;;5100324;28;20178;-76
2021/05/10 05:24:17;;;;;;;2.80;1.93;;;20.50;90.80;;;;;;5085860;28;20206;-75
2021/05/10 05:26:44;;;;;;;4.87;1.70;;;20.20;91.20;;;;;;5102928;28;20161;-75
2021/05/10 05:29:09;;;;;;;3.63;2.00;;;20.70;90.40;;;;;;5102404;28;20479;-76
2021/05/10 05:31:35;;;;;;;2.10;1.80;;;20.80;89.50;;;;;;5102057;28;20465;-75
2021/05/10 05:34:00;;;;;;;2.93;1.80;;;21.10;88.90;;;;;;5102473;28;20192;-75
2021/05/10 05:36:26;;;;;;;3.07;2.30;;;21.00;88.10;;;;;;5102638;28;20194;-75
2021/05/10 05:38:51;;;;;;;1.93;1.60;;;21.40;86.70;;;;;;5101906;28;20201;-76
2021/05/10 05:41:17;;;;;;;6.00;2.80;;;21.40;86.40;;;;;;5077279;28;20174;-75
2021/05/10 05:43:42;;;;;;;2.27;2.10;;;21.40;86.40;;;;;;5096149;28;20170;-75
2021/05/10 05:46:14;;;;;;;2.47;1.70;;;21.20;86.20;;;;;;5096558;28;20170;-75
2021/05/10 05:48:39;;;;;;;2.83;2.23;;;22.10;83.70;;;;;;5095061;28;20276;-75
2021/05/10 05:51:05;;;;;;;2.40;1.60;;;22.20;83.40;;;;;;5095342;28;20540;-75
2021/05/10 05:53:30;;;;;;;1.50;1.40;;;22.70;80.50;;;;;;5095469;28;20648;-75
2021/05/10 05:55:56;;;;;;;3.10;1.57;;;22.50;81.60;;;;;;5095116;28;20177;-75
2021/05/10 05:58:21;;;;;;;2.90;2.23;;;22.30;82.90;;;;;;5094644;28;20274;-75
2021/05/10 06:00:47;;;;;;;4.03;2.10;;;22.10;81.50;;;;;;5076941;28;20612;-75
2021/05/10 06:03:15;;;;;;;4.30;1.70;;;22.10;81.70;;;;;;5094444;28;20175;-75
2021/05/10 06:05:41;;;;;;;3.83;1.80;;;22.70;80.40;;;;;;5095705;28;20197;-75
2021/05/10 06:08:06;;;;;;;3.27;2.10;;;22.60;79.60;;;;;;5095099;28;20442;-75
2021/05/10 06:10:32;;;;;;;2.00;1.90;;;22.30;79.20;;;;;;5096361;28;20216;-73
2021/05/10 06:12:57;;;;;;;3.17;1.90;;;23.40;77.40;;;;;;5098778;28;20187;-75
2021/05/10 06:15:23;;;;;;;3.27;2.20;;;22.80;77.70;;;;;;5097520;28;20187;-74
2021/05/10 06:17:49;;;;;;;2.63;1.73;;;23.00;77.70;;;;;;5095867;28;20254;-74
2021/05/10 06:20:17;;;;;;;2.77;1.90;;;24.10;76.70;;;;;;5096281;28;20223;-75
2021/05/10 06:22:43;;;;;;;2.47;1.70;;;23.50;77.10;;;;;;5095421;28;20417;-75
2021/05/10 06:25:10;;;;;;;3.80;1.87;;;22.40;78.80;;;;;;5095012;28;20897;-75
2021/05/10 06:27:36;;;;;;;4.20;1.70;;;23.30;76.50;;;;;;5096937;28;20280;-75
2021/05/10 06:30:06;;;;;;;4.97;2.10;;;22.60;78.60;;;;;;5095155;28;20883;-75
2021/05/10 06:32:32;;;;;;;4.17;1.70;;;22.60;78.10;;;;;;5094097;28;20176;-75
2021/05/10 06:34:58;;;;;;;1.87;1.53;;;23.70;76.70;;;;;;5080958;28;20448;-75
2021/05/10 06:37:28;;;;;;;9.37;2.10;;;24.10;74.00;;;;;;5099222;28;20662;-74
2021/05/10 06:39:54;;;;;;;2.30;1.40;;;24.30;73.40;;;;;;5099149;28;20172;-74
2021/05/10 06:42:19;;;;;;;3.93;2.60;;;24.90;72.30;;;;;;5104841;28;20431;-75
2021/05/10 06:44:44;;;;;;;2.20;1.80;;;24.00;73.00;;;;;;5109246;28;20174;-75
2021/05/10 06:47:10;;;;;;;3.93;2.00;;;23.60;74.80;;;;;;5083374;28;20201;-77
2021/05/10 06:49:36;;;;;;;2.57;1.60;;;24.40;72.70;;;;;;5083587;28;20460;-75
2021/05/10 06:52:02;;;;;;;3.00;2.27;;;24.50;74.60;;;;;;5107384;28;20187;-76
2021/05/10 06:54:27;;;;;;;8.90;2.10;;;24.60;74.10;;;;;;5123599;28;20184;-76
2021/05/10 06:56:53;;;;;;;2.40;2.00;;;24.70;70.10;;;;;;5116984;28;20173;-76
2021/05/10 06:59:19;;;;;;;3.87;2.00;;;25.10;74.90;;;;;;5088102;28;20173;-75
2021/05/10 07:01:45;;;;;;;2.60;1.47;;;26.40;68.50;;;;;;5088671;28;20181;-75
2021/05/10 07:04:10;;;;;;;3.20;2.00;;;25.60;68.10;;;;;;5081949;28;20797;-75
2021/05/10 07:06:36;;;;;;;2.13;1.60;;;24.60;70.00;;;;;;5083356;28;20431;-76
2021/05/10 07:09:02;;;;;;;2.83;2.23;;;25.30;70.10;;;;;;5093171;28;20278;-75
2021/05/10 07:11:27;;;;;;;4.03;1.67;;;26.50;67.10;;;;;;5120483;28;20559;-76
2021/05/10 07:13:52;;;;;;;4.20;2.40;;;26.10;66.20;;;;;;5120450;28;20217;-74
2021/05/10 07:16:18;;;;;;;3.37;1.70;;;25.50;69.20;;;;;;5108887;28;20170;-76
2021/05/10 07:18:44;;;;;;;2.30;1.73;;;25.60;70.20;;;;;;5082489;28;20185;-76
2021/05/10 07:21:09;;;;;;;1.63;1.50;;;25.50;69.50;;;;;;5100341;28;20173;-77
2021/05/10 07:23:35;;;;;;;3.20;1.50;;;26.70;64.50;;;;;;5082110;28;20166;-75
2021/05/10 07:26:01;;;;;;;2.43;1.80;;;26.40;67.70;;;;;;5098055;28;20195;-75
2021/05/10 07:28:26;;;;;;;4.50;2.50;;;25.40;67.60;;;;;;5098803;28;20481;-75
2021/05/10 07:30:52;;;;;;;2.60;1.63;;;25.50;70.80;;;;;;5101819;28;20189;-75
2021/05/10 07:33:17;;;;;;;2.17;1.90;;;26.00;67.20;;;;;;5100205;28;20169;-76
2021/05/10 07:35:43;;;;;;;3.17;1.90;;;25.90;67.10;;;;;;5098403;28;20166;-75
2021/05/10 07:38:09;;;;;;;3.53;1.83;;;25.30;71.80;;;;;;5098000;28;20551;-75
2021/05/10 07:40:35;;;;;;;3.93;1.40;;;24.90;69.20;;;;;;5081625;28;20166;-75
2021/05/10 07:43:01;;;;;;;3.80;1.87;;;25.00;71.40;;;;;;5080548;28;20174;-75
2021/05/10 07:45:27;;;;;;;1.80;1.60;;;25.90;69.60;;;;;;5084606;28;20170;-75
2021/05/10 07:47:53;;;;;;;3.80;1.93;;;25.00;68.90;;;;;;5118455;28;20475;-75
2021/05/10 07:50:23;;;;;;;7.40;2.20;;;25.10;70.40;;;;;;5114103;28;21032;-76
2021/05/10 07:52:49;;;;;;;4.00;1.97;;;25.10;70.80;;;;;;5120718;28;20415;-75
2021/05/10 07:55:16;;;;;;;2.33;1.47;;;24.80;72.10;;;;;;5118699;28;20399;-75
2021/05/10 07:57:41;;;;;;;3.00;1.80;;;24.60;73.50;;;;;;5121200;28;20411;-75
2021/05/10 08:00:12;;;;;;;2.67;2.20;;;24.70;74.10;;;;;;5122832;28;20470;-76
2021/05/10 08:02:38;;;;;;;5.00;1.93;;;25.20;74.80;;;;;;5119835;28;20172;-76
2021/05/10 08:05:04;;;;;;;3.47;1.80;;;24.90;72.60;;;;;;5118991;28;20547;-75
2021/05/10 08:07:29;;;;;;;4.10;2.10;;;26.60;68.00;;;;;;5104122;28;20873;-75
2021/05/10 08:09:55;;;;;;;3.10;1.67;;;25.80;67.30;;;;;;5095666;28;20455;-77
2021/05/10 08:12:20;;;;;;;3.67;1.90;;;25.60;70.60;;;;;;5096078;28;20157;-74
2021/05/10 08:14:46;;;;;;;6.07;2.13;;;25.10;73.10;;;;;;5078878;28;20173;-73
2021/05/10 08:17:11;;;;;;;1.90;1.77;;;25.50;71.40;;;;;;5092668;28;20554;-75
2021/05/10 08:19:37;;;;;;;1.60;1.50;;;25.80;70.90;;;;;;5092671;28;20195;-73
2021/05/10 08:22:04;;;;;;;5.80;4.37;;;25.60;68.60;;;;;;5092590;28;20184;-72
2021/05/10 08:24:30;;;;;;;3.73;3.43;;;25.70;76.30;;;;;;5075458;28;20276;-73
2021/05/10 08:26:56;;;;;;;3.07;2.60;;;26.00;70.40;;;;;;5092204;28;20399;-74
2021/05/10 08:29:21;;;;;;;6.07;1.80;;;26.70;70.90;;;;;;5073838;28;20426;-74
2021/05/10 08:31:48;;;;;;;1.83;1.57;;;26.50;66.40;;;;;;5074152;28;20189;-75
2021/05/10 08:34:15;;;;;;;4.60;3.00;;;26.70;66.30;;;;;;5092827;28;20164;-76
2021/05/10 08:36:40;;;;;;;4.73;2.37;;;26.60;67.00;;;;;;5092307;28;20766;-75
2021/05/10 08:39:10;;;;;;;2.13;1.93;;;26.30;68.70;;;;;;5092047;28;20428;-75
2021/05/10 08:41:36;;;;;;;2.80;1.90;;;26.40;67.90;;;;;;5092776;28;20177;-75
2021/05/10 08:44:06;;;;;;;3.47;1.77;;;26.20;71.90;;;;;;5092212;28;20414;-72
2021/05/10 08:46:33;;;;;;;3.27;2.50;;;26.10;70.20;;;;;;5102405;28;20778;-75
2021/05/10 08:49:00;;;;;;;6.57;3.90;;;26.20;69.60;;;;;;5112035;28;20463;-75
2021/05/10 08:51:29;;;;;;;3.00;2.73;;;27.10;70.10;;;;;;5106906;28;20529;-75
2021/05/10 08:53:54;;;;;;;3.23;1.90;;;27.50;69.40;;;;;;5107046;28;20418;-75
2021/05/10 08:56:20;;;;;;;3.10;1.60;;;26.80;67.50;;;;;;5100536;28;20472;-75
2021/05/10 08:58:47;;;;;;;3.17;1.63;;;27.70;66.50;;;;;;5107487;28;20785;-78
2021/05/10 09:01:14;;;;;;;3.20;2.33;;;27.10;66.20;;;;;;5095091;28;20178;-75
2021/05/10 09:03:42;;;;;;;3.40;3.10;;;26.90;66.30;;;;;;5092031;28;20416;-75
2021/05/10 09:06:12;;;;;;;6.27;5.20;;;27.10;67.80;;;;;;5091934;28;20408;-76
2021/05/10 09:08:47;;;;;;;2.90;2.23;;;27.40;69.10;;;;;;5098723;28;20920;-75
2021/05/10 09:11:15;;;;;;;6.83;5.60;;;27.70;64.80;;;;;;5112054;28;20465;-75
2021/05/10 09:13:45;;;;;;;5.77;2.53;;;27.70;64.10;;;;;;5112459;28;20409;-75
2021/05/10 09:16:13;;;;;;;3.20;1.97;;;28.50;62.10;;;;;;5111040;28;20398;-75
2021/05/10 09:19:01;;;;;;;9.10;8.20;;;26.90;64.10;;;;;;5112083;28;20422;-74
2021/05/10 09:21:31;;;;;;;6.23;4.20;;;27.80;64.90;;;;;;5061459;28;20780;-75
2021/05/10 09:24:20;;;;;;;5.10;1.80;;;27.50;65.80;;;;;;5111941;28;20778;-74
2021/05/10 09:26:53;;;;;;;14.97;10.00;;;27.60;63.70;;;;;;5110532;28;20422;-74
2021/05/10 09:30:13;;;;;;;15.90;13.77;;;28.50;63.30;;;;;;5111105;28;20405;-74
2021/05/10 09:32:39;;;;;;;14.43;13.03;;;28.70;63.60;;;;;;5097380;28;20427;-74
2021/05/10 09:35:36;;;;;;;9.43;8.53;;;29.00;60.50;;;;;;5091897;28;20813;-74
2021/05/10 09:38:13;;;;;;;16.23;14.73;;;28.90;60.70;;;;;;5091026;28;20431;-74
2021/05/10 09:40:55;;;;;;;3.40;2.33;;;28.80;62.30;;;;;;5091522;28;20410;-75
2021/05/10 09:43:34;;;;;;;18.10;6.37;;;27.90;61.30;;;;;;5091496;28;20403;-76
2021/05/10 09:46:13;;;;;;;21.23;19.13;;;28.10;64.20;;;;;;5097146;28;20413;-76
2021/05/10 09:48:44;;;;;;;7.73;6.93;;;28.90;62.40;;;;;;5105698;28;20430;-76
2021/05/10 09:51:14;;;;;;;8.20;7.10;;;29.20;60.60;;;;;;5095477;28;20948;-76
2021/05/10 09:53:40;;;;;;;3.20;2.87;;;29.20;60.60;;;;;;5093913;28;20411;-76
2021/05/10 09:56:31;;;;;;;4.53;3.10;;;29.40;60.20;;;;;;5105630;28;20509;-76
2021/05/10 09:58:58;;;;;;;3.10;2.17;;;28.40;60.60;;;;;;5110843;28;20509;-75
2021/05/10 10:01:25;;;;;;;3.67;2.20;;;27.00;64.20;;;;;;5111263;28;20417;-74
2021/05/10 10:03:58;;;;;;;5.43;2.80;;;27.60;64.80;;;;;;5111502;28;20889;-75
2021/05/10 10:06:24;;;;;;;3.30;2.60;;;27.20;64.20;;;;;;5099295;28;20706;-75
2021/05/10 10:08:50;;;;;;;2.47;2.27;;;27.40;65.20;;;;;;5091831;28;20434;-75
2021/05/10 10:11:21;;;;;;;2.27;2.03;;;27.60;64.10;;;;;;5100675;28;20548;-74
2021/05/10 10:13:49;;;;;;;3.30;2.43;;;26.80;64.20;;;;;;5115354;28;20756;-75
2021/05/10 10:16:21;;;;;;;4.93;2.67;;;26.80;65.60;;;;;;5105030;28;20407;-75
2021/05/10 10:18:48;;;;;;;2.20;1.73;;;26.90;65.20;;;;;;5095755;28;20442;-76
2021/05/10 10:21:16;;;;;;;2.30;1.70;;;27.10;66.30;;;;;;5110368;28;20425;-79
2021/05/10 10:23:44;;;;;;;3.53;2.10;;;27.00;65.10;;;;;;5115248;28;20430;-76
2021/05/10 10:26:15;;;;;;;1.90;1.70;;;27.30;65.30;;;;;;5110987;28;20501;-76
2021/05/10 10:28:45;;;;;;;3.40;2.00;;;27.10;66.70;;;;;;5094930;28;20459;-77
2021/05/10 10:31:19;;;;;;;4.27;2.33;;;26.90;67.10;;;;;;5095249;28;21099;-76
2021/05/10 10:34:03;;;;;;;4.10;2.03;;;27.10;65.80;;;;;;5076792;28;20827;-77
2021/05/10 10:36:35;;;;;;;2.10;1.90;;;26.90;65.70;;;;;;5095081;28;20432;-75
2021/05/10 10:39:13;;;;;;;3.80;2.07;;;26.80;65.40;;;;;;5106268;28;20496;-76
2021/05/10 10:42:03;;;;;;;3.50;2.20;;;26.40;66.70;;;;;;5114656;28;20423;-75
2021/05/10 10:44:43;;;;;;;5.17;2.30;;;26.50;65.90;;;;;;5115195;28;20398;-74
2021/05/10 10:47:11;;;;;;;2.63;1.77;;;26.60;68.00;;;;;;5114759;28;20437;-74
2021/05/10 10:49:39;;;;;;;2.57;1.87;;;26.70;69.20;;;;;;5114824;28;20435;-77
2021/05/10 10:52:18;;;;;;;19.17;17.13;;;26.90;65.10;;;;;;5114860;28;20418;-74
2021/05/10 10:54:43;;;;;;;5.40;4.90;;;27.10;65.20;;;;;;5098299;28;20439;-76
2021/05/10 10:57:09;;;;;;;3.83;3.03;;;26.90;66.10;;;;;;5106162;28;20536;-77
2021/05/10 10:59:39;;;;;;;8.37;7.50;;;26.70;66.70;;;;;;5100139;28;20173;-78
2021/05/10 11:02:23;;;;;;;8.83;6.60;;;26.90;67.20;;;;;;5103234;28;20176;-78
2021/05/10 11:05:19;;;;;;;29.67;24.03;;;26.70;67.00;;;;;;5094531;28;20415;-77
2021/05/10 11:08:09;;;;;;;6.93;6.20;;;26.80;67.90;;;;;;5094269;28;20426;-77
2021/05/10 11:10:47;;;;;;;20.37;16.20;;;26.90;67.20;;;;;;5094434;28;20454;-77
2021/05/10 11:13:39;;;;;;;28.33;23.20;;;27.00;66.20;;;;;;5094579;28;20396;-77
2021/05/10 11:16:11;;;;;;;11.57;10.03;;;26.90;66.90;;;;;;5100944;28;20393;-77
2021/05/10 11:18:53;;;;;;;8.23;6.97;;;26.90;66.40;;;;;;5105855;28;20425;-77
2021/05/10 11:21:21;;;;;;;18.90;15.67;;;27.10;67.40;;;;;;5075119;28;20927;-77
2021/05/10 11:24:09;;;;;;;12.33;9.23;;;26.90;65.80;;;;;;5101025;28;20425;-77
2021/05/10 11:26:51;;;;;;;9.83;8.20;;;26.80;66.20;;;;;;5097451;28;20931;-77
2021/05/10 11:29:33;;;;;;;8.10;5.30;;;26.90;66.30;;;;;;5116501;28;20410;-77
2021/05/10 11:32:19;;;;;;;3.47;3.13;;;27.00;64.60;;;;;;5119649;28;20452;-77
2021/05/10 11:34:48;;;;;;;5.07;4.60;;;27.10;64.50;;;;;;5098863;28;20421;-77
2021/05/10 11:37:31;;;;;;;7.53;6.70;;;27.20;65.40;;;;;;5119417;28;20423;-77
2021/05/10 11:40:03;;;;;;;4.63;4.23;;;27.20;64.30;;;;;;5118817;28;20400;-78
2021/05/10 11:42:41;;;;;;;9.03;7.87;;;27.30;63.70;;;;;;5118602;28;20413;-77
2021/05/10 11:45:15;;;;;;;8.93;8.03;;;27.50;64.30;;;;;;5118735;28;20929;-78
2021/05/10 11:47:59;;;;;;;4.50;4.10;;;27.60;62.60;;;;;;5116696;28;20498;-77
2021/05/10 11:50:45;;;;;;;13.57;12.13;;;27.60;62.60;;;;;;5114575;28;20450;-77
2021/05/10 11:53:34;;;;;;;9.33;8.33;;;27.50;61.90;;;;;;5112790;28;20981;-78
2021/05/10 11:56:02;;;;;;;13.13;9.93;;;27.70;61.30;;;;;;5101830;28;20406;-76
2021/05/10 11:58:50;;;;;;;1.97;1.67;;;27.90;62.40;;;;;;5107217;28;20433;-76
2021/05/10 12:01:34;;;;;;;2.57;1.50;;;27.70;60.10;;;;;;5103950;28;20418;-77
2021/05/10 12:04:26;;;;;;;3.37;2.00;;;27.60;60.50;;;;;;5093301;28;20406;-76
2021/05/10 12:06:52;;;;;;;1.87;1.73;;;27.70;62.40;;;;;;5093437;28;21004;-77
2021/05/10 12:09:52;;;;;;;2.20;1.73;;;28.10;59.90;;;;;;5093266;28;20472;-76
2021/05/10 12:12:20;;;;;;;7.57;2.93;;;28.20;58.60;;;;;;5092471;28;20481;-76
2021/05/10 12:15:46;;;;;;;1.90;1.40;;;28.30;59.00;;;;;;5110446;28;20458;-76
2021/05/10 12:18:14;;;;;;;2.00;1.80;;;28.40;58.50;;;;;;5112269;28;20441;-75
2021/05/10 12:20:44;;;;;;;1.90;1.80;;;28.30;59.30;;;;;;5112883;28;20401;-76
2021/05/10 12:23:17;;;;;;;2.27;2.07;;;28.40;59.30;;;;;;5112787;28;20405;-76
2021/05/10 12:26:14;;;;;;;2.37;2.17;;;28.50;59.90;;;;;;5093140;28;20507;-76
2021/05/10 12:28:45;;;;;;;2.07;1.63;;;28.50;61.80;;;;;;5112493;28;21154;-76
2021/05/10 12:31:15;;;;;;;3.80;2.43;;;28.40;60.60;;;;;;5111986;28;20485;-76
2021/05/10 12:33:46;;;;;;;2.10;1.90;;;28.60;59.50;;;;;;5112831;28;20408;-76
2021/05/10 12:36:14;;;;;;;1.90;1.70;;;28.60;59.60;;;;;;5112233;28;20455;-75
2021/05/10 12:38:46;;;;;;;2.70;1.70;;;28.50;59.50;;;;;;5112720;28;20788;-75
2021/05/10 12:41:31;;;;;;;2.00;1.80;;;28.60;59.20;;;;;;5094388;28;20491;-76
2021/05/10 12:44:08;;;;;;;2.80;2.47;;;28.70;59.90;;;;;;5111372;28;20441;-76
2021/05/10 12:46:48;;;;;;;2.37;2.17;;;28.60;60.40;;;;;;5112313;28;20410;-76
2021/05/10 12:49:26;;;;;;;2.50;1.80;;;28.80;60.00;;;;;;5112309;28;20449;-76
2021/05/10 12:52:03;;;;;;;2.80;2.30;;;28.70;58.80;;;;;;5106185;28;20472;-75
2021/05/10 12:54:41;;;;;;;3.63;1.93;;;28.80;58.60;;;;;;5112184;28;20405;-76
2021/05/10 12:57:40;;;;;;;5.30;1.97;;;28.80;59.80;;;;;;5112070;28;20417;-76
2021/05/10 13:00:36;;;;;;;2.13;1.60;;;28.80;59.30;;;;;;5098327;28;20440;-76
2021/05/10 13:03:06;;;;;;;1.80;1.70;;;29.00;58.60;;;;;;5091819;28;20884;-76